createdAt,value
2018-06-09T00:01:59.502Z,7.50
2018-06-09T00:04:28.006Z,7.70
2018-06-09T00:06:56.559Z,7.93
2018-06-09T00:09:25.075Z,7.70
2018-06-09T00:11:53.597Z,7.50
2018-06-09T00:14:22.106Z,7.77
2018-06-09T00:16:50.686Z,7.60
2018-06-09T00:19:19.212Z,8.40
2018-06-09T00:21:47.786Z,7.83
2018-06-09T00:24:16.324Z,7.83
2018-06-09T00:26:44.838Z,7.87
2018-06-09T00:29:13.377Z,7.80
2018-06-09T00:31:41.861Z,8.30
2018-06-09T00:34:10.457Z,7.83
2018-06-09T00:36:38.996Z,7.70
2018-06-09T00:39:08.482Z,7.17
2018-06-09T00:41:37.022Z,7.13
2018-06-09T00:44:05.584Z,6.83
2018-06-09T00:46:34.094Z,6.60
2018-06-09T00:49:02.577Z,6.17
2018-06-09T00:51:31.197Z,6.67
2018-06-09T00:53:59.937Z,6.47
2018-06-09T00:56:39.528Z,7.57
2018-06-09T00:59:08.069Z,7.83
2018-06-09T01:01:36.961Z,7.77
2018-06-09T01:04:05.929Z,7.77
2018-06-09T01:06:34.551Z,8.13
2018-06-09T01:09:03.404Z,7.93
2018-06-09T01:11:32.519Z,8.30
2018-06-09T01:14:01.075Z,7.97
2018-06-09T01:16:29.627Z,7.43
2018-06-09T01:18:58.488Z,7.43
2018-06-09T01:21:27.097Z,7.57
2018-06-09T01:23:55.626Z,7.47
2018-06-09T01:26:24.153Z,8.10
2018-06-09T01:28:52.688Z,6.43
2018-06-09T01:31:21.215Z,7.60
2018-06-09T01:33:49.782Z,6.93
2018-06-09T01:36:18.354Z,7.07
2018-06-09T01:38:46.895Z,7.70
2018-06-09T01:41:15.406Z,7.40
2018-06-09T01:43:43.932Z,7.23
2018-06-09T01:46:12.484Z,7.90
2018-06-09T01:48:40.966Z,7.80
2018-06-09T01:51:09.464Z,8.20
2018-06-09T01:53:37.913Z,8.13
2018-06-09T01:56:06.421Z,7.33
2018-06-09T01:58:34.910Z,7.83
2018-06-09T02:01:03.461Z,7.73
2018-06-09T02:03:31.917Z,7.83
2018-06-09T02:06:00.399Z,7.60
2018-06-09T02:08:28.869Z,7.13
2018-06-09T02:10:57.304Z,7.77
2018-06-09T02:13:25.819Z,7.97
2018-06-09T02:15:54.271Z,7.30
2018-06-09T02:18:22.777Z,8.07
2018-06-09T02:20:51.255Z,7.50
2018-06-09T02:23:19.786Z,7.93
2018-06-09T02:25:48.239Z,7.60
2018-06-09T02:28:16.685Z,7.57
2018-06-09T02:30:45.138Z,7.50
2018-06-09T02:33:13.851Z,7.23
2018-06-09T02:35:42.286Z,7.60
2018-06-09T02:38:10.818Z,7.70
2018-06-09T02:40:39.252Z,7.50
2018-06-09T02:43:07.687Z,7.73
2018-06-09T02:45:36.191Z,7.40
2018-06-09T02:48:04.664Z,8.00
2018-06-09T02:50:33.182Z,7.97
2018-06-09T02:53:01.627Z,7.70
2018-06-09T02:55:30.131Z,8.17
2018-06-09T02:57:58.575Z,8.37
2018-06-09T03:00:27.159Z,8.13
2018-06-09T03:02:55.633Z,8.00
2018-06-09T03:05:24.126Z,8.27
2018-06-09T03:07:52.570Z,8.53
2018-06-09T03:10:21.083Z,8.60
2018-06-09T03:12:49.576Z,8.57
2018-06-09T03:15:18.087Z,7.73
2018-06-09T03:17:46.583Z,8.10
2018-06-09T03:20:15.035Z,8.17
2018-06-09T03:22:43.491Z,7.83
2018-06-09T03:25:11.960Z,8.23
2018-06-09T03:27:40.409Z,8.13
2018-06-09T03:30:08.903Z,8.67
2018-06-09T03:32:37.441Z,8.40
2018-06-09T03:35:05.909Z,8.53
2018-06-09T03:37:34.442Z,8.60
2018-06-09T03:40:03.146Z,8.53
2018-06-09T03:42:31.578Z,8.23
2018-06-09T03:45:00.075Z,8.50
2018-06-09T03:47:28.566Z,9.87
2018-06-09T03:49:57.009Z,8.67
2018-06-09T03:52:25.512Z,8.67
2018-06-09T03:54:54.032Z,8.50
2018-06-09T03:57:22.517Z,8.63
2018-06-09T03:59:50.991Z,8.17
2018-06-09T04:02:19.507Z,8.90
2018-06-09T04:04:47.971Z,9.43
2018-06-09T04:07:16.467Z,8.97
2018-06-09T04:09:44.944Z,8.70
2018-06-09T04:12:13.426Z,8.67
2018-06-09T04:14:41.892Z,8.87
2018-06-09T04:17:10.399Z,8.90
2018-06-09T04:19:38.911Z,8.40
2018-06-09T04:22:08.248Z,9.70
2018-06-09T04:24:36.719Z,9.03
2018-06-09T04:27:05.319Z,9.17
2018-06-09T04:29:33.801Z,9.57
2018-06-09T04:32:02.249Z,9.57
2018-06-09T04:34:30.736Z,9.37
2018-06-09T04:36:59.235Z,9.67
2018-06-09T04:39:27.697Z,9.40
2018-06-09T04:41:56.205Z,9.30
2018-06-09T04:44:24.689Z,8.93
2018-06-09T04:46:53.157Z,9.20
2018-06-09T04:49:21.667Z,9.40
2018-06-09T04:51:49.826Z,8.73
2018-06-09T04:54:18.391Z,9.40
2018-06-09T04:56:46.939Z,9.13
2018-06-09T04:59:15.432Z,9.93
2018-06-09T05:01:43.940Z,9.70
2018-06-09T05:04:12.481Z,9.33
2018-06-09T05:06:40.956Z,8.83
2018-06-09T05:09:09.470Z,9.70
2018-06-09T05:11:37.946Z,9.00
2018-06-09T05:14:06.474Z,9.50
2018-06-09T05:16:35.030Z,9.30
2018-06-09T05:19:03.544Z,9.53
2018-06-09T05:21:32.056Z,9.10
2018-06-09T05:24:00.551Z,10.10
2018-06-09T05:26:29.024Z,9.50
2018-06-09T05:28:57.509Z,8.97
2018-06-09T05:31:26.031Z,8.80
2018-06-09T05:33:54.499Z,8.23
2018-06-09T05:36:22.979Z,8.77
2018-06-09T05:38:51.424Z,9.13
2018-06-09T05:41:19.930Z,9.60
2018-06-09T05:43:48.431Z,9.13
2018-06-09T05:46:16.884Z,8.00
2018-06-09T05:48:45.351Z,7.83
2018-06-09T05:51:13.828Z,7.60
2018-06-09T05:53:42.299Z,7.13
2018-06-09T05:56:10.719Z,7.00
2018-06-09T05:58:39.191Z,6.80
2018-06-09T06:01:07.639Z,6.57
2018-06-09T06:03:36.077Z,6.43
2018-06-09T06:06:04.546Z,5.80
2018-06-09T06:08:33.008Z,6.37
2018-06-09T06:11:01.494Z,6.43
2018-06-09T06:13:29.961Z,6.40
2018-06-09T06:15:58.431Z,6.23
2018-06-09T06:18:26.879Z,6.43
2018-06-09T06:20:55.368Z,5.83
2018-06-09T06:23:23.856Z,6.10
2018-06-09T06:25:52.307Z,6.03
2018-06-09T06:28:20.773Z,5.97
2018-06-09T06:30:49.254Z,5.77
2018-06-09T06:33:17.887Z,6.03
2018-06-09T06:35:46.345Z,6.07
2018-06-09T06:38:14.851Z,6.03
2018-06-09T06:40:43.301Z,5.80
2018-06-09T06:43:12.084Z,6.43
2018-06-09T06:45:40.731Z,6.13
2018-06-09T06:48:09.228Z,5.70
2018-06-09T06:50:37.665Z,5.73
2018-06-09T06:53:06.169Z,5.80
2018-06-09T06:55:34.620Z,6.13
2018-06-09T06:58:03.177Z,6.17
2018-06-09T07:00:31.693Z,5.93
2018-06-09T07:03:00.109Z,5.70
2018-06-09T07:05:29.218Z,5.47
2018-06-09T07:07:58.774Z,5.63
2018-06-09T07:10:27.260Z,5.40
2018-06-09T07:12:57.152Z,6.20
2018-06-09T07:15:25.621Z,5.27
2018-06-09T07:17:54.133Z,5.50
2018-06-09T07:20:22.608Z,5.80
2018-06-09T07:22:51.131Z,4.90
2018-06-09T07:25:19.628Z,5.17
2018-06-09T07:27:48.144Z,4.63
2018-06-09T07:30:16.566Z,4.43
2018-06-09T07:32:45.235Z,4.90
2018-06-09T07:35:13.753Z,4.57
2018-06-09T07:37:42.223Z,4.87
2018-06-09T07:40:10.654Z,5.10
2018-06-09T07:42:39.274Z,4.45
2018-06-09T07:45:07.733Z,4.60
2018-06-09T07:47:36.205Z,4.40
2018-06-09T07:50:04.705Z,4.73
2018-06-09T07:52:33.177Z,4.43
2018-06-09T07:55:01.652Z,4.77
2018-06-09T07:57:30.063Z,4.10
2018-06-09T07:59:58.522Z,4.73
2018-06-09T08:02:27.003Z,3.70
2018-06-09T08:04:55.448Z,3.93
2018-06-09T08:07:23.972Z,4.20
2018-06-09T08:09:52.406Z,3.93
2018-06-09T08:12:20.836Z,4.27
2018-06-09T08:14:49.279Z,4.63
2018-06-09T08:17:17.760Z,4.33
2018-06-09T08:19:46.257Z,3.97
2018-06-09T08:22:14.709Z,3.77
2018-06-09T08:24:43.179Z,3.90
2018-06-09T08:27:11.627Z,4.67
2018-06-09T08:29:40.123Z,4.00
2018-06-09T08:32:08.567Z,4.10
2018-06-09T08:34:37.052Z,4.33
2018-06-09T08:37:05.515Z,3.60
2018-06-09T08:39:33.982Z,3.73
2018-06-09T08:42:02.497Z,4.20
2018-06-09T08:44:30.975Z,4.23
2018-06-09T08:46:59.428Z,3.90
2018-06-09T08:49:27.852Z,3.80
2018-06-09T08:51:56.356Z,3.53
2018-06-09T08:54:24.813Z,3.40
2018-06-09T08:56:53.380Z,3.30
2018-06-09T08:59:21.808Z,2.77
2018-06-09T09:01:50.324Z,3.03
2018-06-09T09:04:18.755Z,3.37
2018-06-09T09:06:47.223Z,3.07
2018-06-09T09:09:15.672Z,3.20
2018-06-09T09:11:44.224Z,3.20
2018-06-09T09:14:12.808Z,3.40
2018-06-09T09:16:41.313Z,3.23
2018-06-09T09:19:09.849Z,3.37
2018-06-09T09:21:38.288Z,3.00
2018-06-09T09:24:06.890Z,3.40
2018-06-09T09:26:35.383Z,3.13
2018-06-09T09:29:03.871Z,3.03
2018-06-09T09:31:32.358Z,3.13
2018-06-09T09:34:00.856Z,3.17
2018-06-09T09:36:29.347Z,3.40
2018-06-09T09:38:57.821Z,3.20
2018-06-09T09:41:26.271Z,3.30
2018-06-09T09:43:54.792Z,2.97
2018-06-09T09:46:23.322Z,2.80
2018-06-09T09:48:51.767Z,3.20
2018-06-09T09:51:20.254Z,3.00
2018-06-09T09:53:48.766Z,3.00
2018-06-09T09:56:17.327Z,3.20
2018-06-09T09:58:45.813Z,3.27
2018-06-09T10:01:14.336Z,2.80
2018-06-09T10:03:42.776Z,2.50
2018-06-09T10:06:11.248Z,2.80
2018-06-09T10:08:39.703Z,2.57
2018-06-09T10:11:08.200Z,2.63
2018-06-09T10:13:36.723Z,2.53
2018-06-09T10:16:05.328Z,2.67
2018-06-09T10:18:33.826Z,2.30
2018-06-09T10:21:02.374Z,2.57
2018-06-09T10:23:30.835Z,2.27
2018-06-09T10:25:59.333Z,2.40
2018-06-09T10:28:27.763Z,2.20
2018-06-09T10:30:56.205Z,1.90
2018-06-09T10:33:24.656Z,2.23
2018-06-09T10:35:53.126Z,2.50
2018-06-09T10:38:21.602Z,2.17
2018-06-09T10:40:50.075Z,2.33
2018-06-09T10:43:18.551Z,2.30
2018-06-09T10:45:47.028Z,2.17
2018-06-09T10:48:15.536Z,2.15
2018-06-09T10:50:44.031Z,2.50
2018-06-09T10:53:12.521Z,2.60
2018-06-09T10:55:41.015Z,2.45
2018-06-09T10:58:09.589Z,2.60
2018-06-09T11:00:37.991Z,2.30
2018-06-09T11:03:06.476Z,2.40
2018-06-09T11:05:34.964Z,2.50
2018-06-09T11:08:03.423Z,2.50
2018-06-09T11:10:31.930Z,2.37
2018-06-09T11:13:00.459Z,2.13
2018-06-09T11:15:28.989Z,2.30
2018-06-09T11:17:57.423Z,2.07
2018-06-09T11:20:25.938Z,2.07
2018-06-09T11:22:54.390Z,2.10
2018-06-09T11:25:22.847Z,2.17
2018-06-09T11:27:51.371Z,2.50
2018-06-09T11:30:19.872Z,2.52
2018-06-09T11:32:48.654Z,2.08
2018-06-09T11:35:17.143Z,2.40
2018-06-09T11:37:45.596Z,2.60
2018-06-09T11:40:14.141Z,2.65
2018-06-09T11:42:42.593Z,3.17
2018-06-09T11:45:11.081Z,2.20
2018-06-09T11:47:39.502Z,3.15
2018-06-09T11:50:08.039Z,2.50
2018-06-09T11:52:36.469Z,2.30
2018-06-09T11:55:04.956Z,2.35
2018-06-09T11:57:33.464Z,2.35
2018-06-09T12:00:01.986Z,2.22
2018-06-09T12:02:30.493Z,2.20
2018-06-09T12:04:58.961Z,2.22
2018-06-09T12:07:27.407Z,2.52
2018-06-09T12:09:55.882Z,2.17
2018-06-09T12:12:24.350Z,2.20
2018-06-09T12:14:52.820Z,2.47
2018-06-09T12:17:21.479Z,2.83
2018-06-09T12:19:50.032Z,2.62
2018-06-09T12:22:18.595Z,2.23
2018-06-09T12:24:47.211Z,2.50
2018-06-09T12:27:15.724Z,2.70
2018-06-09T12:29:44.720Z,3.00
2018-06-09T12:32:13.276Z,2.90
2018-06-09T12:34:41.770Z,2.40
2018-06-09T12:37:10.315Z,2.50
2018-06-09T12:39:38.833Z,2.00
2018-06-09T12:42:07.307Z,3.40
2018-06-09T12:44:35.575Z,2.20
2018-06-09T12:47:04.123Z,2.30
2018-06-09T12:49:32.607Z,1.67
2018-06-09T12:52:02.317Z,2.30
2018-06-09T12:54:31.599Z,2.20
2018-06-09T12:57:06.701Z,2.10
2018-06-09T12:59:35.298Z,1.90
2018-06-09T13:02:03.843Z,2.20
2018-06-09T13:04:33.585Z,2.40
2018-06-09T13:07:04.110Z,2.22
2018-06-09T13:09:33.713Z,1.80
2018-06-09T13:12:02.827Z,1.95
2018-06-09T13:14:33.894Z,2.37
2018-06-09T13:17:02.731Z,2.20
2018-06-09T13:19:32.337Z,2.00
2018-06-09T13:22:07.950Z,1.80
2018-06-09T13:24:43.726Z,2.30
2018-06-09T13:27:18.044Z,2.15
2018-06-09T13:29:46.839Z,2.72
2018-06-09T13:32:15.465Z,2.30
2018-06-09T13:34:44.244Z,2.10
2018-06-09T13:37:12.859Z,2.10
2018-06-09T13:39:41.662Z,2.65
2018-06-09T13:42:10.205Z,2.50
2018-06-09T13:44:38.695Z,2.55
2018-06-09T13:47:07.542Z,2.60
2018-06-09T13:49:36.390Z,2.60
2018-06-09T13:52:05.113Z,2.52
2018-06-09T13:54:33.759Z,2.62
2018-06-09T13:57:02.669Z,2.70
2018-06-09T13:59:31.211Z,2.77
2018-06-09T14:02:01.252Z,2.95
2018-06-09T14:04:30.699Z,3.02
2018-06-09T14:06:59.568Z,3.40
2018-06-09T14:09:28.026Z,2.98
2018-06-09T14:11:56.503Z,3.00
2018-06-09T14:14:24.980Z,2.67
2018-06-09T14:16:53.676Z,3.10
2018-06-09T14:19:22.368Z,3.27
2018-06-09T14:21:51.716Z,3.17
2018-06-09T14:24:20.202Z,3.62
2018-06-09T14:26:48.837Z,3.10
2018-06-09T14:29:17.345Z,3.30
2018-06-09T14:31:45.801Z,3.35
2018-06-09T14:34:14.314Z,3.37
2018-06-09T14:36:42.763Z,3.95
2018-06-09T14:39:11.242Z,3.62
2018-06-09T14:41:39.716Z,3.65
2018-06-09T14:44:09.258Z,3.35
2018-06-09T14:46:37.758Z,3.40
2018-06-09T14:49:06.603Z,3.12
2018-06-09T14:51:35.066Z,3.27
2018-06-09T14:54:05.094Z,3.40
2018-06-09T14:56:33.657Z,3.62
2018-06-09T14:59:02.103Z,3.45
2018-06-09T15:01:30.276Z,3.05
2018-06-09T15:03:58.743Z,3.45
2018-06-09T15:06:27.266Z,3.50
2018-06-09T15:08:57.334Z,3.20
2018-06-09T15:11:26.096Z,3.20
2018-06-09T15:13:54.757Z,3.08
2018-06-09T15:16:23.305Z,3.40
2018-06-09T15:18:52.204Z,3.65
2018-06-09T15:21:20.976Z,3.80
2018-06-09T15:23:49.451Z,3.62
2018-06-09T15:26:17.968Z,3.10
2018-06-09T15:28:46.422Z,3.33
2018-06-09T15:31:14.936Z,3.30
2018-06-09T15:33:43.411Z,3.98
2018-06-09T15:36:12.814Z,3.27
2018-06-09T15:38:47.619Z,3.40
2018-06-09T15:41:16.236Z,3.05
2018-06-09T15:43:46.899Z,3.60
2018-06-09T15:46:16.706Z,3.70
2018-06-09T15:48:45.534Z,4.00
2018-06-09T15:51:14.114Z,4.80
2018-06-09T15:53:42.579Z,4.87
2018-06-09T15:56:13.626Z,4.92
2018-06-09T15:58:43.653Z,3.98
2018-06-09T16:01:12.479Z,3.65
2018-06-09T16:03:43.594Z,4.03
2018-06-09T16:06:12.097Z,3.60
2018-06-09T16:08:40.538Z,3.90
2018-06-09T16:11:09.099Z,3.67
2018-06-09T16:13:37.699Z,4.03
2018-06-09T16:16:06.579Z,3.67
2018-06-09T16:18:35.026Z,3.83
2018-06-09T16:21:04.650Z,4.08
2018-06-09T16:23:33.080Z,3.62
2018-06-09T16:26:02.127Z,4.05
2018-06-09T16:28:30.591Z,4.08
2018-06-09T16:30:59.049Z,4.10
2018-06-09T16:33:27.816Z,3.93
2018-06-09T16:35:56.317Z,4.10
2018-06-09T16:38:24.837Z,4.40
2018-06-09T16:40:53.435Z,4.67
2018-06-09T16:43:22.159Z,4.45
2018-06-09T16:45:50.765Z,4.50
2018-06-09T16:48:19.432Z,4.40
2018-06-09T16:50:47.931Z,4.57
2018-06-09T16:53:16.430Z,4.17
2018-06-09T16:55:44.915Z,4.47
2018-06-09T16:58:14.007Z,4.40
2018-06-09T17:00:43.887Z,4.30
2018-06-09T17:03:12.424Z,4.30
2018-06-09T17:05:40.879Z,4.50
2018-06-09T17:08:09.663Z,4.50
2018-06-09T17:10:38.159Z,4.53
2018-06-09T17:13:07.907Z,4.20
2018-06-09T17:15:43.746Z,5.60
2018-06-09T17:18:12.371Z,5.58
2018-06-09T17:20:40.901Z,4.80
2018-06-09T17:23:09.387Z,4.80
2018-06-09T17:25:37.882Z,4.60
2018-06-09T17:28:06.309Z,4.57
2018-06-09T17:30:34.771Z,4.35
2018-06-09T17:33:03.433Z,4.37
2018-06-09T17:35:31.894Z,4.22
2018-06-09T17:38:00.050Z,4.65
2018-06-09T17:40:28.468Z,5.30
2018-06-09T17:42:56.975Z,5.30
2018-06-09T17:45:25.431Z,7.37
2018-06-09T17:47:53.909Z,4.03
2018-06-09T17:50:22.741Z,4.90
2018-06-09T17:52:51.157Z,4.33
2018-06-09T17:55:19.560Z,4.37
2018-06-09T17:57:48.060Z,4.50
2018-06-09T18:00:16.489Z,3.87
2018-06-09T18:02:44.978Z,4.20
2018-06-09T18:05:13.615Z,4.30
2018-06-09T18:07:42.084Z,4.00
2018-06-09T18:10:10.857Z,4.67
2018-06-09T18:12:39.313Z,3.57
2018-06-09T18:15:08.798Z,3.33
2018-06-09T18:17:37.273Z,3.90
2018-06-09T18:20:05.753Z,4.40
2018-06-09T18:22:34.241Z,4.63
2018-06-09T18:25:02.975Z,3.40
2018-06-09T18:27:31.785Z,4.67
2018-06-09T18:30:00.351Z,4.23
2018-06-09T18:32:29.018Z,4.60
2018-06-09T18:34:57.593Z,3.53
2018-06-09T18:37:26.187Z,4.33
2018-06-09T18:39:54.619Z,3.90
2018-06-09T18:42:23.061Z,4.20
2018-06-09T18:44:51.544Z,4.17
2018-06-09T18:47:19.978Z,3.90
2018-06-09T18:49:48.494Z,3.93
2018-06-09T18:52:17.194Z,3.73
2018-06-09T18:54:45.844Z,3.60
2018-06-09T18:57:14.316Z,3.43
2018-06-09T18:59:42.815Z,3.83
2018-06-09T19:02:11.248Z,3.77
2018-06-09T19:04:39.725Z,3.13
2018-06-09T19:07:08.163Z,3.33
2018-06-09T19:09:36.641Z,4.20
2018-06-09T19:12:05.144Z,4.20
2018-06-09T19:14:33.699Z,4.30
2018-06-09T19:17:02.416Z,4.90
2018-06-09T19:19:30.902Z,4.10
2018-06-09T19:21:59.427Z,3.90
2018-06-09T19:24:27.867Z,3.93
2018-06-09T19:26:56.310Z,4.03
2018-06-09T19:29:24.798Z,3.60
2018-06-09T19:31:53.234Z,5.97
2018-06-09T19:34:21.734Z,4.30
2018-06-09T19:36:50.193Z,4.27
2018-06-09T19:39:18.615Z,3.63
2018-06-09T19:41:47.406Z,7.30
2018-06-09T19:44:16.029Z,10.07
2018-06-09T19:46:44.512Z,11.87
2018-06-09T19:49:12.942Z,5.83
2018-06-09T19:51:41.411Z,5.23
2018-06-09T19:54:09.898Z,4.67
2018-06-09T19:56:38.383Z,5.70
2018-06-09T19:59:06.850Z,5.37
2018-06-09T20:01:35.366Z,5.80
2018-06-09T20:04:03.808Z,5.47
2018-06-09T20:06:32.322Z,4.33
2018-06-09T20:09:00.877Z,3.80
2018-06-09T20:11:29.382Z,3.50
2018-06-09T20:13:57.934Z,6.70
2018-06-09T20:16:26.367Z,17.50
2018-06-09T20:18:54.854Z,13.80
2018-06-09T20:21:23.400Z,11.83
2018-06-09T20:23:51.897Z,5.70
2018-06-09T20:26:20.338Z,5.10
2018-06-09T20:28:48.845Z,3.90
2018-06-09T20:31:17.302Z,3.60
2018-06-09T20:33:45.790Z,3.27
2018-06-09T20:36:14.290Z,3.47
2018-06-09T20:38:42.798Z,3.87
2018-06-09T20:41:11.262Z,3.83
2018-06-09T20:43:40.121Z,3.70
2018-06-09T20:46:08.607Z,3.97
2018-06-09T20:48:37.042Z,3.70
2018-06-09T20:51:05.534Z,4.67
2018-06-09T20:53:34.015Z,5.10
2018-06-09T20:56:02.524Z,5.80
2018-06-09T20:58:36.374Z,6.40
2018-06-09T21:01:04.894Z,6.93
2018-06-09T21:03:33.469Z,6.00
2018-06-09T21:06:02.071Z,5.67
2018-06-09T21:08:30.456Z,5.20
2018-06-09T21:10:58.976Z,4.03
2018-06-09T21:13:27.483Z,3.90
2018-06-09T21:15:56.010Z,4.10
2018-06-09T21:18:24.451Z,3.90
2018-06-09T21:20:53.048Z,3.57
2018-06-09T21:23:21.557Z,3.37
2018-06-09T21:25:50.065Z,3.40
2018-06-09T21:28:23.956Z,3.30
2018-06-09T21:30:57.947Z,4.03
2018-06-09T21:33:43.141Z,4.23
2018-06-09T21:36:13.836Z,8.40
2018-06-09T21:38:47.763Z,8.50
2018-06-09T21:41:21.690Z,8.03
2018-06-09T21:43:52.791Z,5.47
2018-06-09T21:46:26.491Z,5.40
2018-06-09T21:48:55.023Z,4.10
2018-06-09T21:51:23.508Z,3.90
2018-06-09T21:53:52.060Z,3.70
2018-06-09T21:56:20.561Z,3.60
2018-06-09T21:58:49.011Z,3.40
2018-06-09T22:01:17.615Z,3.20
2018-06-09T22:03:46.294Z,3.50
2018-06-09T22:06:14.743Z,3.33
2018-06-09T22:08:43.238Z,2.97
2018-06-09T22:11:11.735Z,3.47
2018-06-09T22:13:40.310Z,2.80
2018-06-09T22:16:08.794Z,3.20
2018-06-09T22:18:37.316Z,3.10
2018-06-09T22:21:05.818Z,2.87
2018-06-09T22:23:34.545Z,3.27
2018-06-09T22:26:03.251Z,2.80
2018-06-09T22:28:31.735Z,3.00
2018-06-09T22:31:00.374Z,3.00
2018-06-09T22:33:29.005Z,3.33
2018-06-09T22:35:57.661Z,3.00
2018-06-09T22:38:26.219Z,3.13
2018-06-09T22:40:54.951Z,3.10
2018-06-09T22:43:23.552Z,3.13
2018-06-09T22:45:52.148Z,3.13
2018-06-09T22:48:20.712Z,3.33
2018-06-09T22:50:49.278Z,3.13
2018-06-09T22:53:17.813Z,3.00
2018-06-09T22:55:46.327Z,3.37
2018-06-09T22:58:14.982Z,3.27
2018-06-09T23:00:48.741Z,2.97
2018-06-09T23:03:17.954Z,3.30
2018-06-09T23:05:46.952Z,2.90
2018-06-09T23:08:16.150Z,3.10
2018-06-09T23:10:45.567Z,3.07
2018-06-09T23:13:14.137Z,2.90
2018-06-09T23:15:43.512Z,3.40
2018-06-09T23:18:12.173Z,3.00
2018-06-09T23:20:40.730Z,2.87
2018-06-09T23:23:09.325Z,3.37
2018-06-09T23:25:37.861Z,3.00
2018-06-09T23:28:06.430Z,3.13
2018-06-09T23:30:34.953Z,3.03
2018-06-09T23:33:04.536Z,2.80
2018-06-09T23:35:33.249Z,2.60
2018-06-09T23:38:01.894Z,2.90
2018-06-09T23:40:30.433Z,3.17
2018-06-09T23:42:59.013Z,3.50
2018-06-09T23:45:27.579Z,2.73
2018-06-09T23:47:56.132Z,3.20
2018-06-09T23:50:24.784Z,2.83
2018-06-09T23:52:53.424Z,3.03
2018-06-09T23:55:21.962Z,3.40
2018-06-09T23:57:50.530Z,3.47
